sensor_id;sensor_type;location;lat;lon;timestamp;pressure;altitude;pressure_sealevel;temperature;humidity
22550;BME280;11441;57.164;-2.120;2023-05-11T00:01:07;100492.69;;;12.26;100.00
22550;BME280;11441;57.164;-2.120;2023-05-11T00:03:34;100478.22;;;12.06;100.00
22550;BME280;11441;57.164;-2.120;2023-05-11T00:06:01;100497.94;;;12.08;100.00
22550;BME280;11441;57.164;-2.120;2023-05-11T00:08:28;100493.63;;;12.07;100.00
22550;BME280;11441;57.164;-2.120;2023-05-11T00:10:55;100486.44;;;12.02;100.00
22550;BME280;11441;57.164;-2.120;2023-05-11T00:13:22;100497.22;;;12.11;100.00
22550;BME280;11441;57.164;-2.120;2023-05-11T00:15:50;100498.81;;;12.12;100.00
22550;BME280;11441;57.164;-2.120;2023-05-11T00:18:17;100500.03;;;12.15;100.00
22550;BME280;11441;57.164;-2.120;2023-05-11T00:20:44;100495.19;;;12.08;100.00
22550;BME280;11441;57.164;-2.120;2023-05-11T00:23:11;100497.63;;;11.90;100.00
22550;BME280;11441;57.164;-2.120;2023-05-11T00:25:55;100502.56;;;12.00;100.00
22550;BME280;11441;57.164;-2.120;2023-05-11T00:28:22;100501.59;;;12.12;100.00
22550;BME280;11441;57.164;-2.120;2023-05-11T00:31:07;100507.91;;;12.13;100.00
22550;BME280;11441;57.164;-2.120;2023-05-11T00:33:33;100515.31;;;12.08;100.00
22550;BME280;11441;57.164;-2.120;2023-05-11T00:36:02;100513.78;;;12.11;100.00
22550;BME280;11441;57.164;-2.120;2023-05-11T00:38:29;100515.25;;;12.05;100.00
22550;BME280;11441;57.164;-2.120;2023-05-11T00:40:56;100509.00;;;12.08;100.00
22550;BME280;11441;57.164;-2.120;2023-05-11T00:43:23;100510.59;;;12.09;100.00
22550;BME280;11441;57.164;-2.120;2023-05-11T00:45:51;100510.50;;;12.02;100.00
22550;BME280;11441;57.164;-2.120;2023-05-11T00:48:19;100516.06;;;12.05;100.00
22550;BME280;11441;57.164;-2.120;2023-05-11T00:50:45;100524.72;;;12.04;100.00
22550;BME280;11441;57.164;-2.120;2023-05-11T00:53:13;100520.78;;;12.05;100.00
22550;BME280;11441;57.164;-2.120;2023-05-11T00:55:40;100526.84;;;11.91;100.00
22550;BME280;11441;57.164;-2.120;2023-05-11T00:58:07;100525.03;;;11.99;100.00
22550;BME280;11441;57.164;-2.120;2023-05-11T01:00:34;100531.44;;;11.83;100.00
22550;BME280;11441;57.164;-2.120;2023-05-11T01:03:02;100534.34;;;11.91;100.00
22550;BME280;11441;57.164;-2.120;2023-05-11T01:05:40;100529.75;;;11.79;100.00
22550;BME280;11441;57.164;-2.120;2023-05-11T01:08:33;100541.09;;;11.93;100.00
22550;BME280;11441;57.164;-2.120;2023-05-11T01:11:27;100537.72;;;11.84;100.00
22550;BME280;11441;57.164;-2.120;2023-05-11T01:14:05;100537.59;;;11.77;100.00
22550;BME280;11441;57.164;-2.120;2023-05-11T01:16:56;100545.09;;;11.76;100.00
22550;BME280;11441;57.164;-2.120;2023-05-11T01:19:38;100544.53;;;11.67;100.00
22550;BME280;11441;57.164;-2.120;2023-05-11T01:30:50;100557.03;;;11.61;100.00
22550;BME280;11441;57.164;-2.120;2023-05-11T01:33:40;100562.75;;;11.72;100.00
22550;BME280;11441;57.164;-2.120;2023-05-11T01:36:11;100558.34;;;11.67;100.00
22550;BME280;11441;57.164;-2.120;2023-05-11T01:38:40;100564.16;;;11.62;100.00
22550;BME280;11441;57.164;-2.120;2023-05-11T01:41:13;100573.28;;;11.66;100.00
22550;BME280;11441;57.164;-2.120;2023-05-11T01:43:44;100570.97;;;11.48;100.00
22550;BME280;11441;57.164;-2.120;2023-05-11T01:46:12;100573.59;;;11.41;100.00
22550;BME280;11441;57.164;-2.120;2023-05-11T01:48:43;100579.31;;;11.52;100.00
22550;BME280;11441;57.164;-2.120;2023-05-11T01:51:13;100579.41;;;11.36;100.00
22550;BME280;11441;57.164;-2.120;2023-05-11T01:53:42;100583.69;;;11.33;100.00
22550;BME280;11441;57.164;-2.120;2023-05-11T01:56:10;100589.19;;;11.33;100.00
22550;BME280;11441;57.164;-2.120;2023-05-11T01:58:39;100583.31;;;11.16;100.00
22550;BME280;11441;57.164;-2.120;2023-05-11T02:01:07;100590.72;;;11.11;100.00
22550;BME280;11441;57.164;-2.120;2023-05-11T02:03:35;100590.56;;;11.04;100.00
22550;BME280;11441;57.164;-2.120;2023-05-11T02:06:04;100573.28;;;10.88;100.00
22550;BME280;11441;57.164;-2.120;2023-05-11T02:08:34;100586.41;;;10.94;100.00
22550;BME280;11441;57.164;-2.120;2023-05-11T02:11:02;100592.63;;;10.91;100.00
22550;BME280;11441;57.164;-2.120;2023-05-11T02:13:49;100592.16;;;11.05;100.00
22550;BME280;11441;57.164;-2.120;2023-05-11T02:16:18;100596.44;;;11.03;100.00
22550;BME280;11441;57.164;-2.120;2023-05-11T02:18:47;100603.31;;;10.93;100.00
22550;BME280;11441;57.164;-2.120;2023-05-11T02:21:15;100593.66;;;10.67;100.00
22550;BME280;11441;57.164;-2.120;2023-05-11T02:23:43;100612.44;;;10.62;100.00
22550;BME280;11441;57.164;-2.120;2023-05-11T02:26:13;100606.44;;;10.75;100.00
22550;BME280;11441;57.164;-2.120;2023-05-11T02:28:42;100607.16;;;10.72;100.00
22550;BME280;11441;57.164;-2.120;2023-05-11T02:31:16;100613.09;;;10.74;100.00
22550;BME280;11441;57.164;-2.120;2023-05-11T02:33:47;100619.94;;;10.81;100.00
22550;BME280;11441;57.164;-2.120;2023-05-11T02:36:21;100614.88;;;10.83;100.00
22550;BME280;11441;57.164;-2.120;2023-05-11T02:38:54;100613.88;;;10.91;100.00
22550;BME280;11441;57.164;-2.120;2023-05-11T02:41:26;100622.91;;;11.07;100.00
22550;BME280;11441;57.164;-2.120;2023-05-11T02:43:59;100632.63;;;11.01;100.00
22550;BME280;11441;57.164;-2.120;2023-05-11T02:46:31;100633.22;;;11.10;100.00
22550;BME280;11441;57.164;-2.120;2023-05-11T02:49:01;100635.22;;;10.94;100.00
22550;BME280;11441;57.164;-2.120;2023-05-11T02:51:49;100623.78;;;11.11;100.00
22550;BME280;11441;57.164;-2.120;2023-05-11T02:54:17;100629.44;;;10.83;100.00
22550;BME280;11441;57.164;-2.120;2023-05-11T02:56:50;100634.34;;;10.74;100.00
22550;BME280;11441;57.164;-2.120;2023-05-11T02:59:17;100639.94;;;10.78;100.00
22550;BME280;11441;57.164;-2.120;2023-05-11T03:01:44;100640.22;;;10.72;100.00
22550;BME280;11441;57.164;-2.120;2023-05-11T03:04:12;100645.13;;;10.63;100.00
22550;BME280;11441;57.164;-2.120;2023-05-11T03:06:39;100649.66;;;10.71;100.00
22550;BME280;11441;57.164;-2.120;2023-05-11T03:09:07;100654.81;;;10.73;100.00
22550;BME280;11441;57.164;-2.120;2023-05-11T03:11:41;100659.22;;;10.78;100.00
22550;BME280;11441;57.164;-2.120;2023-05-11T03:14:09;100659.31;;;10.65;100.00
22550;BME280;11441;57.164;-2.120;2023-05-11T03:16:36;100646.81;;;10.52;100.00
22550;BME280;11441;57.164;-2.120;2023-05-11T03:19:05;100660.78;;;10.59;100.00
22550;BME280;11441;57.164;-2.120;2023-05-11T03:21:51;100662.09;;;10.49;100.00
22550;BME280;11441;57.164;-2.120;2023-05-11T03:24:37;100665.72;;;10.37;100.00
22550;BME280;11441;57.164;-2.120;2023-05-11T03:27:07;100670.88;;;10.39;100.00
22550;BME280;11441;57.164;-2.120;2023-05-11T03:29:36;100673.38;;;10.44;100.00
22550;BME280;11441;57.164;-2.120;2023-05-11T03:32:05;100671.38;;;10.29;100.00
22550;BME280;11441;57.164;-2.120;2023-05-11T03:34:54;100672.50;;;10.56;100.00
22550;BME280;11441;57.164;-2.120;2023-05-11T03:37:21;100673.38;;;10.44;100.00
22550;BME280;11441;57.164;-2.120;2023-05-11T03:39:51;100669.81;;;10.44;100.00
22550;BME280;11441;57.164;-2.120;2023-05-11T03:42:20;100677.00;;;10.32;100.00
22550;BME280;11441;57.164;-2.120;2023-05-11T03:44:49;100680.78;;;10.28;100.00
22550;BME280;11441;57.164;-2.120;2023-05-11T03:47:20;100680.31;;;10.38;100.00
22550;BME280;11441;57.164;-2.120;2023-05-11T03:49:49;100687.97;;;10.61;100.00
22550;BME280;11441;57.164;-2.120;2023-05-11T03:52:18;100689.72;;;10.69;100.00
22550;BME280;11441;57.164;-2.120;2023-05-11T03:55:04;100700.03;;;10.72;100.00
22550;BME280;11441;57.164;-2.120;2023-05-11T03:57:32;100696.22;;;10.61;100.00
22550;BME280;11441;57.164;-2.120;2023-05-11T03:59:58;100698.97;;;10.61;100.00
22550;BME280;11441;57.164;-2.120;2023-05-11T04:02:26;100699.66;;;10.73;100.00
22550;BME280;11441;57.164;-2.120;2023-05-11T04:04:53;100696.75;;;10.50;100.00
22550;BME280;11441;57.164;-2.120;2023-05-11T04:07:19;100695.66;;;10.55;100.00
22550;BME280;11441;57.164;-2.120;2023-05-11T04:09:46;100697.78;;;10.78;100.00
22550;BME280;11441;57.164;-2.120;2023-05-11T04:12:13;100700.03;;;10.56;100.00
22550;BME280;11441;57.164;-2.120;2023-05-11T04:14:40;100713.00;;;10.71;100.00
22550;BME280;11441;57.164;-2.120;2023-05-11T04:17:07;100710.94;;;10.84;100.00
22550;BME280;11441;57.164;-2.120;2023-05-11T04:19:34;100713.88;;;10.75;100.00
22550;BME280;11441;57.164;-2.120;2023-05-11T04:22:01;100715.75;;;10.71;100.00
22550;BME280;11441;57.164;-2.120;2023-05-11T04:24:29;100713.63;;;10.65;100.00
22550;BME280;11441;57.164;-2.120;2023-05-11T04:26:56;100716.44;;;10.36;100.00
22550;BME280;11441;57.164;-2.120;2023-05-11T04:29:23;100717.59;;;10.35;100.00
22550;BME280;11441;57.164;-2.120;2023-05-11T04:31:50;100717.78;;;10.43;100.00
22550;BME280;11441;57.164;-2.120;2023-05-11T04:34:17;100723.13;;;10.51;100.00
22550;BME280;11441;57.164;-2.120;2023-05-11T04:37:03;100736.53;;;10.69;100.00
22550;BME280;11441;57.164;-2.120;2023-05-11T04:39:34;100717.88;;;10.46;100.00
22550;BME280;11441;57.164;-2.120;2023-05-11T04:42:01;100721.72;;;10.57;100.00
22550;BME280;11441;57.164;-2.120;2023-05-11T04:44:28;100741.25;;;10.68;100.00
22550;BME280;11441;57.164;-2.120;2023-05-11T04:46:55;100748.09;;;10.74;100.00
22550;BME280;11441;57.164;-2.120;2023-05-11T04:49:40;100743.63;;;10.38;100.00
22550;BME280;11441;57.164;-2.120;2023-05-11T04:52:07;100750.97;;;10.78;100.00
22550;BME280;11441;57.164;-2.120;2023-05-11T04:54:34;100754.41;;;10.75;100.00
22550;BME280;11441;57.164;-2.120;2023-05-11T04:57:02;100759.84;;;10.71;100.00
22550;BME280;11441;57.164;-2.120;2023-05-11T04:59:29;100759.47;;;10.73;100.00
22550;BME280;11441;57.164;-2.120;2023-05-11T05:01:56;100765.59;;;10.66;100.00
22550;BME280;11441;57.164;-2.120;2023-05-11T05:04:23;100771.28;;;10.89;100.00
22550;BME280;11441;57.164;-2.120;2023-05-11T05:06:50;100774.22;;;10.81;100.00
22550;BME280;11441;57.164;-2.120;2023-05-11T05:09:16;100786.47;;;10.83;100.00
22550;BME280;11441;57.164;-2.120;2023-05-11T05:11:44;100790.94;;;10.88;100.00
22550;BME280;11441;57.164;-2.120;2023-05-11T05:14:11;100793.69;;;11.04;100.00
22550;BME280;11441;57.164;-2.120;2023-05-11T05:16:37;100796.88;;;11.06;100.00
22550;BME280;11441;57.164;-2.120;2023-05-11T05:19:04;100793.97;;;10.99;100.00
22550;BME280;11441;57.164;-2.120;2023-05-11T05:21:32;100792.47;;;10.85;100.00
22550;BME280;11441;57.164;-2.120;2023-05-11T05:24:01;100792.19;;;10.90;100.00
22550;BME280;11441;57.164;-2.120;2023-05-11T05:26:32;100790.66;;;10.77;100.00
22550;BME280;11441;57.164;-2.120;2023-05-11T05:28:59;100792.09;;;10.87;100.00
22550;BME280;11441;57.164;-2.120;2023-05-11T05:31:26;100807.22;;;10.93;100.00
22550;BME280;11441;57.164;-2.120;2023-05-11T05:34:12;100817.63;;;11.16;100.00
22550;BME280;11441;57.164;-2.120;2023-05-11T05:36:42;100814.25;;;10.90;100.00
22550;BME280;11441;57.164;-2.120;2023-05-11T05:39:09;100810.94;;;10.85;100.00
22550;BME280;11441;57.164;-2.120;2023-05-11T05:41:38;100813.16;;;10.95;100.00
22550;BME280;11441;57.164;-2.120;2023-05-11T05:44:08;100821.88;;;10.97;100.00
22550;BME280;11441;57.164;-2.120;2023-05-11T05:46:36;100827.75;;;10.96;100.00
22550;BME280;11441;57.164;-2.120;2023-05-11T05:49:03;100834.31;;;10.75;100.00
22550;BME280;11441;57.164;-2.120;2023-05-11T05:51:30;100840.94;;;10.74;100.00
22550;BME280;11441;57.164;-2.120;2023-05-11T05:53:58;100831.13;;;11.05;100.00
22550;BME280;11441;57.164;-2.120;2023-05-11T05:56:25;100833.97;;;10.92;100.00
22550;BME280;11441;57.164;-2.120;2023-05-11T05:58:52;100840.28;;;10.93;100.00
22550;BME280;11441;57.164;-2.120;2023-05-11T06:01:19;100838.31;;;10.93;100.00
22550;BME280;11441;57.164;-2.120;2023-05-11T06:03:48;100847.59;;;11.17;100.00
22550;BME280;11441;57.164;-2.120;2023-05-11T06:06:18;100848.19;;;11.10;100.00
22550;BME280;11441;57.164;-2.120;2023-05-11T06:08:45;100852.56;;;11.11;100.00
22550;BME280;11441;57.164;-2.120;2023-05-11T06:11:12;100861.53;;;11.08;100.00
22550;BME280;11441;57.164;-2.120;2023-05-11T06:13:39;100861.19;;;11.26;100.00
22550;BME280;11441;57.164;-2.120;2023-05-11T06:16:06;100865.31;;;11.32;100.00
22550;BME280;11441;57.164;-2.120;2023-05-11T06:18:34;100867.50;;;11.42;100.00
22550;BME280;11441;57.164;-2.120;2023-05-11T06:21:04;100878.34;;;11.35;100.00
22550;BME280;11441;57.164;-2.120;2023-05-11T06:23:32;100871.78;;;11.24;100.00
22550;BME280;11441;57.164;-2.120;2023-05-11T06:25:58;100882.81;;;11.40;100.00
22550;BME280;11441;57.164;-2.120;2023-05-11T06:28:28;100881.28;;;11.26;100.00
22550;BME280;11441;57.164;-2.120;2023-05-11T06:30:59;100887.63;;;11.27;100.00
22550;BME280;11441;57.164;-2.120;2023-05-11T06:33:30;100890.91;;;11.17;100.00
22550;BME280;11441;57.164;-2.120;2023-05-11T06:35:57;100900.16;;;11.40;100.00
22550;BME280;11441;57.164;-2.120;2023-05-11T06:38:27;100903.44;;;11.46;100.00
22550;BME280;11441;57.164;-2.120;2023-05-11T06:40:54;100903.81;;;11.44;100.00
22550;BME280;11441;57.164;-2.120;2023-05-11T06:43:22;100905.66;;;11.72;100.00
22550;BME280;11441;57.164;-2.120;2023-05-11T06:45:51;100914.09;;;11.63;100.00
22550;BME280;11441;57.164;-2.120;2023-05-11T06:48:19;100915.91;;;11.40;100.00
22550;BME280;11441;57.164;-2.120;2023-05-11T06:50:49;100913.03;;;11.68;100.00
22550;BME280;11441;57.164;-2.120;2023-05-11T06:53:16;100926.28;;;11.78;100.00
22550;BME280;11441;57.164;-2.120;2023-05-11T06:55:43;100928.00;;;11.83;100.00
22550;BME280;11441;57.164;-2.120;2023-05-11T06:58:10;100937.16;;;11.71;100.00
22550;BME280;11441;57.164;-2.120;2023-05-11T07:00:38;100940.81;;;11.91;100.00
22550;BME280;11441;57.164;-2.120;2023-05-11T07:03:05;100944.56;;;11.99;100.00
22550;BME280;11441;57.164;-2.120;2023-05-11T07:05:32;100942.41;;;11.76;100.00
22550;BME280;11441;57.164;-2.120;2023-05-11T07:07:59;100943.31;;;11.64;100.00
22550;BME280;11441;57.164;-2.120;2023-05-11T07:10:26;100945.00;;;11.69;100.00
22550;BME280;11441;57.164;-2.120;2023-05-11T07:12:53;100936.91;;;11.76;100.00
22550;BME280;11441;57.164;-2.120;2023-05-11T07:15:20;100934.50;;;11.91;100.00
22550;BME280;11441;57.164;-2.120;2023-05-11T07:17:47;100948.75;;;11.93;100.00
22550;BME280;11441;57.164;-2.120;2023-05-11T07:20:13;100951.84;;;11.91;100.00
22550;BME280;11441;57.164;-2.120;2023-05-11T07:22:40;100960.41;;;12.02;100.00
22550;BME280;11441;57.164;-2.120;2023-05-11T07:25:07;100955.16;;;11.97;100.00
22550;BME280;11441;57.164;-2.120;2023-05-11T07:27:56;100961.19;;;11.86;100.00
22550;BME280;11441;57.164;-2.120;2023-05-11T07:30:23;100959.16;;;11.67;100.00
22550;BME280;11441;57.164;-2.120;2023-05-11T07:32:51;100965.28;;;11.77;100.00
22550;BME280;11441;57.164;-2.120;2023-05-11T07:35:18;100971.78;;;11.84;100.00
22550;BME280;11441;57.164;-2.120;2023-05-11T07:37:47;100972.16;;;11.83;100.00
22550;BME280;11441;57.164;-2.120;2023-05-11T07:40:13;100973.56;;;11.77;100.00
22550;BME280;11441;57.164;-2.120;2023-05-11T07:42:40;100977.50;;;11.92;100.00
22550;BME280;11441;57.164;-2.120;2023-05-11T07:45:07;100983.72;;;11.88;100.00
22550;BME280;11441;57.164;-2.120;2023-05-11T07:47:34;100977.25;;;11.97;100.00
22550;BME280;11441;57.164;-2.120;2023-05-11T07:50:02;100981.22;;;11.99;100.00
22550;BME280;11441;57.164;-2.120;2023-05-11T07:52:29;100988.06;;;12.21;100.00
22550;BME280;11441;57.164;-2.120;2023-05-11T07:54:56;101001.44;;;12.19;100.00
22550;BME280;11441;57.164;-2.120;2023-05-11T07:57:23;100991.34;;;12.27;100.00
22550;BME280;11441;57.164;-2.120;2023-05-11T07:59:50;100999.13;;;12.21;100.00
22550;BME280;11441;57.164;-2.120;2023-05-11T08:02:17;101005.28;;;12.50;100.00
22550;BME280;11441;57.164;-2.120;2023-05-11T08:05:03;100999.34;;;12.68;100.00
22550;BME280;11441;57.164;-2.120;2023-05-11T08:07:49;101008.25;;;12.77;100.00
22550;BME280;11441;57.164;-2.120;2023-05-11T08:10:16;101019.22;;;12.93;100.00
22550;BME280;11441;57.164;-2.120;2023-05-11T08:12:42;101016.97;;;12.98;100.00
22550;BME280;11441;57.164;-2.120;2023-05-11T08:15:10;101017.19;;;12.90;100.00
22550;BME280;11441;57.164;-2.120;2023-05-11T08:17:37;101023.50;;;12.90;100.00
22550;BME280;11441;57.164;-2.120;2023-05-11T08:20:04;101032.47;;;12.83;100.00
22550;BME280;11441;57.164;-2.120;2023-05-11T08:22:32;101036.31;;;12.98;100.00
22550;BME280;11441;57.164;-2.120;2023-05-11T08:24:59;101037.19;;;13.02;100.00
22550;BME280;11441;57.164;-2.120;2023-05-11T08:27:26;101042.78;;;13.06;100.00
22550;BME280;11441;57.164;-2.120;2023-05-11T08:29:54;101047.53;;;13.06;100.00
22550;BME280;11441;57.164;-2.120;2023-05-11T08:32:20;101050.06;;;12.95;100.00
22550;BME280;11441;57.164;-2.120;2023-05-11T08:34:48;101056.19;;;13.04;100.00
22550;BME280;11441;57.164;-2.120;2023-05-11T08:37:15;101070.91;;;13.08;100.00
22550;BME280;11441;57.164;-2.120;2023-05-11T08:40:01;101062.47;;;13.40;100.00
22550;BME280;11441;57.164;-2.120;2023-05-11T08:42:31;101059.09;;;13.31;100.00
22550;BME280;11441;57.164;-2.120;2023-05-11T08:45:00;101074.03;;;13.46;100.00
22550;BME280;11441;57.164;-2.120;2023-05-11T08:47:27;101069.50;;;13.18;100.00
22550;BME280;11441;57.164;-2.120;2023-05-11T08:49:54;101075.84;;;13.18;100.00
22550;BME280;11441;57.164;-2.120;2023-05-11T08:52:21;101083.91;;;13.08;100.00
22550;BME280;11441;57.164;-2.120;2023-05-11T08:54:48;101086.03;;;13.14;100.00
22550;BME280;11441;57.164;-2.120;2023-05-11T08:57:16;101090.19;;;13.24;100.00
22550;BME280;11441;57.164;-2.120;2023-05-11T08:59:44;101089.91;;;12.94;100.00
22550;BME280;11441;57.164;-2.120;2023-05-11T09:02:16;101094.81;;;13.20;100.00
22550;BME280;11441;57.164;-2.120;2023-05-11T09:04:44;101099.53;;;13.00;100.00
22550;BME280;11441;57.164;-2.120;2023-05-11T09:07:15;101107.38;;;12.62;100.00
22550;BME280;11441;57.164;-2.120;2023-05-11T09:09:45;101101.50;;;12.64;100.00
22550;BME280;11441;57.164;-2.120;2023-05-11T09:12:14;101106.34;;;12.87;100.00
22550;BME280;11441;57.164;-2.120;2023-05-11T09:14:42;101101.75;;;12.75;100.00
22550;BME280;11441;57.164;-2.120;2023-05-11T09:17:09;101111.41;;;12.65;100.00
22550;BME280;11441;57.164;-2.120;2023-05-11T09:19:55;101105.19;;;12.52;100.00
22550;BME280;11441;57.164;-2.120;2023-05-11T09:22:22;101111.56;;;12.72;100.00
22550;BME280;11441;57.164;-2.120;2023-05-11T09:25:10;101120.66;;;12.73;100.00
22550;BME280;11441;57.164;-2.120;2023-05-11T09:27:42;101116.41;;;12.59;100.00
22550;BME280;11441;57.164;-2.120;2023-05-11T09:30:20;101122.56;;;12.53;100.00
22550;BME280;11441;57.164;-2.120;2023-05-11T09:32:55;101128.50;;;12.71;100.00
22550;BME280;11441;57.164;-2.120;2023-05-11T09:35:27;101128.91;;;12.37;100.00
22550;BME280;11441;57.164;-2.120;2023-05-11T09:40:28;101129.31;;;12.55;100.00
22550;BME280;11441;57.164;-2.120;2023-05-11T09:43:16;101143.03;;;12.68;100.00
22550;BME280;11441;57.164;-2.120;2023-05-11T09:45:45;101140.63;;;12.66;100.00
22550;BME280;11441;57.164;-2.120;2023-05-11T09:48:29;101139.56;;;12.71;100.00
22550;BME280;11441;57.164;-2.120;2023-05-11T09:51:07;101146.44;;;12.77;100.00
22550;BME280;11441;57.164;-2.120;2023-05-11T09:53:41;101148.25;;;12.89;100.00
22550;BME280;11441;57.164;-2.120;2023-05-11T09:56:13;101146.69;;;12.72;100.00
22550;BME280;11441;57.164;-2.120;2023-05-11T09:58:52;101154.63;;;12.57;100.00
22550;BME280;11441;57.164;-2.120;2023-05-11T10:01:29;101152.66;;;12.74;100.00
22550;BME280;11441;57.164;-2.120;2023-05-11T10:03:57;101158.78;;;12.83;100.00
22550;BME280;11441;57.164;-2.120;2023-05-11T10:06:48;101166.00;;;12.88;100.00
22550;BME280;11441;57.164;-2.120;2023-05-11T10:09:18;101173.88;;;12.54;100.00
22550;BME280;11441;57.164;-2.120;2023-05-11T10:11:49;101174.78;;;12.42;100.00
22550;BME280;11441;57.164;-2.120;2023-05-11T10:14:17;101180.09;;;12.35;100.00
22550;BME280;11441;57.164;-2.120;2023-05-11T10:16:45;101163.75;;;12.42;100.00
22550;BME280;11441;57.164;-2.120;2023-05-11T10:19:13;101181.47;;;12.57;100.00
22550;BME280;11441;57.164;-2.120;2023-05-11T10:21:40;101186.00;;;12.49;100.00
22550;BME280;11441;57.164;-2.120;2023-05-11T10:24:09;101187.25;;;12.68;100.00
22550;BME280;11441;57.164;-2.120;2023-05-11T10:26:37;101183.16;;;12.61;100.00
22550;BME280;11441;57.164;-2.120;2023-05-11T10:29:04;101192.78;;;12.83;100.00
22550;BME280;11441;57.164;-2.120;2023-05-11T10:31:31;101199.19;;;12.88;100.00
22550;BME280;11441;57.164;-2.120;2023-05-11T10:34:00;101206.41;;;12.92;100.00
22550;BME280;11441;57.164;-2.120;2023-05-11T10:36:27;101203.19;;;12.90;100.00
22550;BME280;11441;57.164;-2.120;2023-05-11T10:38:54;101204.56;;;13.16;100.00
22550;BME280;11441;57.164;-2.120;2023-05-11T10:41:27;101212.50;;;12.82;100.00
22550;BME280;11441;57.164;-2.120;2023-05-11T10:46:55;101214.97;;;13.03;100.00
22550;BME280;11441;57.164;-2.120;2023-05-11T10:53:00;101217.78;;;13.23;100.00
22550;BME280;11441;57.164;-2.120;2023-05-11T11:04:03;101235.50;;;13.37;100.00
22550;BME280;11441;57.164;-2.120;2023-05-11T11:06:33;101247.16;;;12.95;100.00
22550;BME280;11441;57.164;-2.120;2023-05-11T11:09:05;101242.09;;;13.49;100.00
22550;BME280;11441;57.164;-2.120;2023-05-11T11:11:42;101243.06;;;12.89;100.00
22550;BME280;11441;57.164;-2.120;2023-05-11T11:14:13;101232.91;;;13.29;100.00
22550;BME280;11441;57.164;-2.120;2023-05-11T11:20:05;101255.34;;;13.24;100.00
22550;BME280;11441;57.164;-2.120;2023-05-11T11:25:14;101256.56;;;13.26;100.00
22550;BME280;11441;57.164;-2.120;2023-05-11T11:28:00;101258.00;;;13.20;100.00
22550;BME280;11441;57.164;-2.120;2023-05-11T11:30:28;101258.91;;;13.24;100.00
22550;BME280;11441;57.164;-2.120;2023-05-11T11:38:13;101261.75;;;13.63;100.00
22550;BME280;11441;57.164;-2.120;2023-05-11T11:40:44;101276.72;;;13.58;100.00
22550;BME280;11441;57.164;-2.120;2023-05-11T11:43:22;101275.03;;;13.73;100.00
22550;BME280;11441;57.164;-2.120;2023-05-11T11:45:54;101276.22;;;13.37;100.00
22550;BME280;11441;57.164;-2.120;2023-05-11T11:51:06;101289.91;;;13.49;100.00
22550;BME280;11441;57.164;-2.120;2023-05-11T12:01:20;101301.47;;;13.35;100.00
22550;BME280;11441;57.164;-2.120;2023-05-11T12:06:43;101302.38;;;13.24;100.00
22550;BME280;11441;57.164;-2.120;2023-05-11T12:09:17;101318.16;;;13.07;100.00
22550;BME280;11441;57.164;-2.120;2023-05-11T12:11:45;101328.41;;;13.23;100.00
22550;BME280;11441;57.164;-2.120;2023-05-11T12:14:14;101315.81;;;12.93;100.00
22550;BME280;11441;57.164;-2.120;2023-05-11T12:16:41;101331.34;;;13.14;100.00
22550;BME280;11441;57.164;-2.120;2023-05-11T12:19:08;101332.31;;;13.37;100.00
22550;BME280;11441;57.164;-2.120;2023-05-11T12:21:36;101330.91;;;13.44;100.00
22550;BME280;11441;57.164;-2.120;2023-05-11T12:24:04;101338.34;;;13.75;100.00
22550;BME280;11441;57.164;-2.120;2023-05-11T12:26:32;101346.53;;;13.36;100.00
22550;BME280;11441;57.164;-2.120;2023-05-11T12:29:07;101343.81;;;13.08;100.00
22550;BME280;11441;57.164;-2.120;2023-05-11T12:31:36;101343.66;;;13.16;100.00
22550;BME280;11441;57.164;-2.120;2023-05-11T12:34:03;101347.38;;;12.76;100.00
22550;BME280;11441;57.164;-2.120;2023-05-11T12:36:31;101356.41;;;12.89;100.00
22550;BME280;11441;57.164;-2.120;2023-05-11T12:38:59;101356.41;;;12.89;100.00
22550;BME280;11441;57.164;-2.120;2023-05-11T12:41:26;101359.63;;;13.23;100.00
22550;BME280;11441;57.164;-2.120;2023-05-11T12:43:53;101363.34;;;12.99;100.00
22550;BME280;11441;57.164;-2.120;2023-05-11T12:46:22;101361.06;;;12.57;100.00
22550;BME280;11441;57.164;-2.120;2023-05-11T12:48:50;101368.78;;;12.95;100.00
22550;BME280;11441;57.164;-2.120;2023-05-11T12:54:36;101384.63;;;12.67;100.00
22550;BME280;11441;57.164;-2.120;2023-05-11T12:57:05;101385.94;;;13.01;100.00
22550;BME280;11441;57.164;-2.120;2023-05-11T12:59:39;101389.16;;;13.03;100.00
22550;BME280;11441;57.164;-2.120;2023-05-11T13:02:09;101388.88;;;12.92;100.00
22550;BME280;11441;57.164;-2.120;2023-05-11T13:04:39;101382.44;;;12.88;100.00
22550;BME280;11441;57.164;-2.120;2023-05-11T13:07:26;101393.38;;;12.40;100.00
22550;BME280;11441;57.164;-2.120;2023-05-11T13:09:58;101392.16;;;12.54;100.00
22550;BME280;11441;57.164;-2.120;2023-05-11T13:12:26;101396.56;;;12.71;100.00
22550;BME280;11441;57.164;-2.120;2023-05-11T13:15:08;101404.44;;;12.85;100.00
22550;BME280;11441;57.164;-2.120;2023-05-11T13:17:41;101404.28;;;12.93;100.00
22550;BME280;11441;57.164;-2.120;2023-05-11T13:20:23;101409.41;;;13.07;100.00
22550;BME280;11441;57.164;-2.120;2023-05-11T13:23:21;101411.19;;;12.99;100.00
22550;BME280;11441;57.164;-2.120;2023-05-11T13:25:51;101416.00;;;12.74;100.00
22550;BME280;11441;57.164;-2.120;2023-05-11T13:28:36;101419.38;;;12.96;100.00
22550;BME280;11441;57.164;-2.120;2023-05-11T13:31:03;101419.69;;;12.78;100.00
22550;BME280;11441;57.164;-2.120;2023-05-11T13:33:32;101419.38;;;12.96;100.00
22550;BME280;11441;57.164;-2.120;2023-05-11T13:36:00;101420.06;;;12.36;100.00
22550;BME280;11441;57.164;-2.120;2023-05-11T13:38:27;101430.47;;;12.55;100.00
22550;BME280;11441;57.164;-2.120;2023-05-11T13:40:54;101435.16;;;12.39;100.00